Time;durP1;ratioP1;P1;durP2;ratioP2;P2;SDS_P1;SDS_P2;PMS_P1;PMS_P2;Temp;Humidity;BMP_temperature;BMP_pressure;BME280_temperature;BME280_humidity;BME280_pressure;Samples;Min_cycle;Max_cycle;Signal;HPM_P1;HPM_P2
2023/09/21 00:00:13;;;;;;;2.77;1.73;;;17.30;25.90;;;;;;5055170;28;20753;-70
2023/09/21 00:02:44;;;;;;;2.67;1.47;;;17.20;27.60;;;;;;5054844;28;20419;-70
2023/09/21 00:05:10;;;;;;;3.60;1.97;;;17.00;28.10;;;;;;5054847;28;20456;-70
2023/09/21 00:07:36;;;;;;;2.80;1.90;;;17.00;28.20;;;;;;5054965;28;20935;-70
2023/09/21 00:10:05;;;;;;;5.20;1.80;;;17.00;28.60;;;;;;5054832;28;20409;-70
2023/09/21 00:12:31;;;;;;;3.17;1.90;;;17.00;27.60;;;;;;5054583;28;20175;-70
2023/09/21 00:14:58;;;;;;;3.00;2.20;;;17.10;27.50;;;;;;5054742;28;20425;-69
2023/09/21 00:17:23;;;;;;;2.40;1.20;;;17.20;27.50;;;;;;5054586;28;20412;-69
2023/09/21 00:19:49;;;;;;;3.23;1.90;;;17.10;27.50;;;;;;5054617;28;21133;-69
2023/09/21 00:22:15;;;;;;;3.67;2.47;;;17.10;28.50;;;;;;5054439;28;20171;-69
2023/09/21 00:24:41;;;;;;;3.40;1.97;;;17.10;27.90;;;;;;5054536;28;20955;-69
2023/09/21 00:27:06;;;;;;;3.43;2.20;;;17.10;27.80;;;;;;5054577;28;20405;-70
2023/09/21 00:29:32;;;;;;;3.77;1.87;;;17.00;28.10;;;;;;5054460;28;20178;-69
2023/09/21 00:31:58;;;;;;;3.37;2.40;;;17.00;29.60;;;;;;5053188;28;20497;-69
2023/09/21 00:34:24;;;;;;;3.77;2.17;;;16.90;30.20;;;;;;5054244;28;20174;-69
2023/09/21 00:36:50;;;;;;;3.27;1.80;;;17.00;29.90;;;;;;5054486;28;20185;-70
2023/09/21 00:39:17;;;;;;;3.50;1.90;;;17.00;29.80;;;;;;5036511;28;20986;-69
2023/09/21 00:41:43;;;;;;;3.00;1.30;;;16.90;30.00;;;;;;5054167;28;20217;-70
2023/09/21 00:44:09;;;;;;;4.13;1.97;;;16.90;30.90;;;;;;5053959;28;20916;-69
2023/09/21 00:46:36;;;;;;;4.90;1.97;;;16.80;31.60;;;;;;5054013;28;20540;-70
2023/09/21 00:49:04;;;;;;;4.27;1.70;;;16.80;32.50;;;;;;5054533;28;20421;-68
2023/09/21 00:51:32;;;;;;;3.97;2.57;;;16.90;31.90;;;;;;5053943;28;20401;-69
2023/09/21 00:54:07;;;;;;;2.30;1.67;;;16.90;33.30;;;;;;5053816;28;20448;-69
2023/09/21 00:56:34;;;;;;;2.30;1.70;;;16.90;32.90;;;;;;5053891;28;20474;-70
2023/09/21 00:59:02;;;;;;;3.00;1.83;;;16.90;32.30;;;;;;5053736;28;20445;-69
2023/09/21 01:01:28;;;;;;;3.40;1.90;;;16.90;33.10;;;;;;5053919;28;20500;-69
2023/09/21 01:03:55;;;;;;;3.30;1.73;;;16.90;32.70;;;;;;5053585;28;20413;-69
2023/09/21 01:06:21;;;;;;;3.20;1.53;;;16.90;32.50;;;;;;5053652;28;20479;-69
2023/09/21 01:08:48;;;;;;;3.03;1.70;;;16.90;31.90;;;;;;5053743;28;20853;-69
2023/09/21 01:11:14;;;;;;;2.43;1.83;;;16.90;32.30;;;;;;5035585;28;20417;-69
2023/09/21 01:13:43;;;;;;;4.43;2.50;;;16.90;32.30;;;;;;5053329;28;20420;-69
2023/09/21 01:16:13;;;;;;;5.20;2.20;;;17.00;32.30;;;;;;5053541;28;20997;-69
2023/09/21 01:18:41;;;;;;;3.57;2.13;;;17.00;32.50;;;;;;5053535;28;20814;-69
2023/09/21 01:21:12;;;;;;;3.77;2.40;;;16.90;32.90;;;;;;5053436;28;20758;-69
2023/09/21 01:23:52;;;;;;;3.50;2.30;;;16.90;33.50;;;;;;5053217;28;20927;-70
2023/09/21 01:26:19;;;;;;;3.43;2.33;;;16.80;35.50;;;;;;5053253;28;20444;-70
2023/09/21 01:28:46;;;;;;;2.47;1.80;;;16.70;36.90;;;;;;5053310;28;20413;-70
2023/09/21 01:31:13;;;;;;;3.50;2.07;;;16.70;36.20;;;;;;5053290;28;20478;-69
2023/09/21 01:33:39;;;;;;;3.57;2.43;;;16.70;36.90;;;;;;5053026;28;20491;-69
2023/09/21 01:36:08;;;;;;;3.17;1.90;;;16.60;38.00;;;;;;5053101;28;21019;-69
2023/09/21 01:38:34;;;;;;;3.00;1.97;;;16.50;38.10;;;;;;5053092;28;20445;-69
2023/09/21 01:41:00;;;;;;;5.93;2.27;;;16.40;38.30;;;;;;5034980;28;20954;-69
2023/09/21 01:43:26;;;;;;;3.07;1.93;;;16.30;38.90;;;;;;5052639;28;20405;-69
2023/09/21 01:45:51;;;;;;;8.73;3.37;;;16.30;39.00;;;;;;5035391;28;20202;-69
2023/09/21 01:48:20;;;;;;;4.00;2.23;;;16.20;38.90;;;;;;5052933;28;20205;-68
2023/09/21 01:50:48;;;;;;;3.37;2.13;;;16.20;39.20;;;;;;5052861;28;20668;-68
2023/09/21 01:53:16;;;;;;;4.03;2.53;;;16.30;38.90;;;;;;5034603;28;20409;-69
2023/09/21 01:55:43;;;;;;;3.80;2.63;;;16.30;39.30;;;;;;5052691;28;20421;-69
2023/09/21 01:58:09;;;;;;;2.70;2.10;;;16.30;39.80;;;;;;5052802;28;20467;-69
2023/09/21 02:00:39;;;;;;;5.80;3.47;;;16.30;39.90;;;;;;5052814;28;20413;-68
2023/09/21 02:03:08;;;;;;;5.30;3.00;;;16.20;40.40;;;;;;5052389;28;20492;-68
2023/09/21 02:05:37;;;;;;;4.87;2.20;;;16.10;41.40;;;;;;5053060;28;20445;-68
2023/09/21 02:08:07;;;;;;;3.77;2.30;;;16.10;41.30;;;;;;5052441;28;20417;-68
2023/09/21 02:10:34;;;;;;;3.40;2.33;;;16.10;40.90;;;;;;5052471;28;20409;-68
2023/09/21 02:13:01;;;;;;;5.13;2.93;;;16.10;41.60;;;;;;5034513;28;20429;-68
2023/09/21 02:15:28;;;;;;;3.53;2.27;;;16.10;41.00;;;;;;5052363;28;20448;-68
2023/09/21 02:17:55;;;;;;;6.87;2.83;;;16.20;41.00;;;;;;5052356;28;20904;-68
2023/09/21 02:20:26;;;;;;;4.20;2.10;;;16.10;41.10;;;;;;5052214;28;20460;-68
2023/09/21 02:22:53;;;;;;;4.33;2.67;;;16.10;40.90;;;;;;5052063;28;20417;-68
2023/09/21 02:25:19;;;;;;;3.97;2.03;;;16.20;41.10;;;;;;5052269;28;20867;-69
2023/09/21 02:27:49;;;;;;;2.93;2.13;;;16.20;41.20;;;;;;5052300;28;20440;-68
2023/09/21 02:30:17;;;;;;;2.80;1.73;;;16.20;41.60;;;;;;5034459;28;20805;-68
2023/09/21 02:32:50;;;;;;;3.60;2.03;;;16.20;42.30;;;;;;5051946;28;20759;-69
2023/09/21 02:35:22;;;;;;;3.37;2.47;;;16.20;42.80;;;;;;5052205;28;20443;-68
2023/09/21 02:37:49;;;;;;;4.80;1.80;;;16.30;42.00;;;;;;5052241;28;20440;-68
2023/09/21 02:40:16;;;;;;;3.03;1.73;;;16.30;41.10;;;;;;5052160;28;20519;-68
2023/09/21 02:42:43;;;;;;;3.83;2.10;;;16.30;41.80;;;;;;5051887;28;20495;-68
2023/09/21 02:45:10;;;;;;;4.63;2.33;;;16.30;41.80;;;;;;5052026;28;20443;-68
2023/09/21 02:47:37;;;;;;;2.20;1.53;;;16.30;41.10;;;;;;5034059;28;20429;-68
2023/09/21 02:50:14;;;;;;;3.30;2.53;;;16.30;40.30;;;;;;5052047;28;20417;-68
2023/09/21 02:52:54;;;;;;;3.70;2.03;;;16.30;40.40;;;;;;5051597;28;20471;-69
2023/09/21 02:55:21;;;;;;;9.80;2.27;;;16.30;40.10;;;;;;5033778;28;20441;-68
2023/09/21 02:57:55;;;;;;;3.40;2.37;;;16.30;41.10;;;;;;5051860;28;20424;-68
2023/09/21 03:00:27;;;;;;;3.47;2.57;;;16.30;40.80;;;;;;5051842;28;20825;-68
2023/09/21 03:02:56;;;;;;;6.10;2.43;;;16.40;40.70;;;;;;5051594;28;20548;-68
2023/09/21 03:05:26;;;;;;;3.07;2.00;;;16.40;40.70;;;;;;5033701;28;20461;-68
2023/09/21 03:07:53;;;;;;;4.27;2.17;;;16.40;41.40;;;;;;5051690;28;20739;-68
2023/09/21 03:10:19;;;;;;;3.13;2.50;;;16.40;41.70;;;;;;5033817;28;20425;-68
2023/09/21 03:12:48;;;;;;;3.00;1.83;;;16.50;41.70;;;;;;5051505;28;20928;-68
2023/09/21 03:15:15;;;;;;;3.53;2.07;;;16.40;41.80;;;;;;5033838;28;20284;-68
2023/09/21 03:17:45;;;;;;;2.43;1.70;;;16.50;42.70;;;;;;5051779;28;20421;-69
2023/09/21 03:20:12;;;;;;;3.63;2.50;;;16.40;42.00;;;;;;5051687;28;20602;-68
2023/09/21 03:22:41;;;;;;;2.57;1.70;;;16.40;42.60;;;;;;5051874;28;20918;-68
2023/09/21 03:25:25;;;;;;;4.73;2.30;;;16.30;43.00;;;;;;5051431;28;20440;-68
2023/09/21 03:27:57;;;;;;;2.90;1.80;;;16.40;43.10;;;;;;5051599;28;20412;-68
2023/09/21 03:30:24;;;;;;;3.13;2.20;;;16.50;42.60;;;;;;5052046;28;20416;-68
2023/09/21 03:32:50;;;;;;;3.93;2.70;;;16.40;42.30;;;;;;5051361;28;20417;-68
2023/09/21 03:35:16;;;;;;;2.43;1.73;;;16.40;42.60;;;;;;5051601;28;20437;-68
2023/09/21 03:37:43;;;;;;;11.60;2.20;;;16.30;42.70;;;;;;5051546;28;20463;-68
2023/09/21 03:40:10;;;;;;;4.40;2.50;;;16.30;43.20;;;;;;5051487;28;20324;-68
2023/09/21 03:42:36;;;;;;;4.67;2.17;;;16.40;43.70;;;;;;5051470;28;20880;-68
2023/09/21 03:45:03;;;;;;;2.73;1.90;;;16.40;42.90;;;;;;5033585;28;20810;-68
2023/09/21 03:47:29;;;;;;;2.60;1.97;;;16.50;42.70;;;;;;5051348;28;20420;-68
2023/09/21 03:49:55;;;;;;;3.13;2.30;;;16.40;43.60;;;;;;5051330;28;20413;-69
2023/09/21 03:52:22;;;;;;;13.00;2.50;;;16.50;42.70;;;;;;5051034;28;20210;-68
2023/09/21 03:54:47;;;;;;;3.20;2.10;;;16.50;42.40;;;;;;5051222;28;20202;-68
2023/09/21 03:57:16;;;;;;;2.83;2.20;;;16.50;42.60;;;;;;5033543;28;20433;-68
2023/09/21 03:59:42;;;;;;;3.50;2.30;;;16.50;43.50;;;;;;5051293;28;20201;-68
2023/09/21 04:02:08;;;;;;;9.90;3.77;;;16.40;44.10;;;;;;5033185;28;20801;-68
2023/09/21 04:04:34;;;;;;;4.47;2.80;;;16.50;44.50;;;;;;5051583;28;20440;-68
2023/09/21 04:06:59;;;;;;;5.30;3.47;;;16.40;44.20;;;;;;5055083;28;20178;-69
2023/09/21 04:09:25;;;;;;;8.80;3.63;;;16.50;44.30;;;;;;5055029;28;20256;-68
2023/09/21 04:11:50;;;;;;;4.27;3.80;;;16.40;44.90;;;;;;5054969;28;20220;-69
2023/09/21 04:14:16;;;;;;;5.73;3.30;;;16.50;44.40;;;;;;5054785;28;20203;-69
2023/09/21 04:16:41;;;;;;;3.07;2.47;;;16.50;45.00;;;;;;5054802;28;20178;-68
2023/09/21 04:19:10;;;;;;;4.10;3.30;;;16.40;45.50;;;;;;5054690;28;20248;-69
2023/09/21 04:21:36;;;;;;;5.37;4.80;;;16.40;47.00;;;;;;5054742;28;20591;-68
2023/09/21 04:24:02;;;;;;;7.43;5.00;;;16.30;46.50;;;;;;5054793;28;20499;-68
2023/09/21 04:26:28;;;;;;;7.53;5.43;;;16.30;46.90;;;;;;5054559;28;20536;-69
2023/09/21 04:28:55;;;;;;;12.07;4.30;;;;;;;;;;5054551;28;20413;-68
2023/09/21 04:31:21;;;;;;;8.87;4.70;;;;;;;;;;5054404;28;20433;-69
2023/09/21 04:33:48;;;;;;;6.40;3.23;;;;;;;;;;5054153;28;20834;-68
2023/09/21 04:36:14;;;;;;;6.83;3.17;;;;;;;;;;5054271;28;21018;-69
2023/09/21 04:38:42;;;;;;;5.57;4.00;;;;;;;;;;5036234;28;20991;-68
2023/09/21 04:41:14;;;;;;;4.33;3.33;;;;;;;;;;5054227;28;20405;-68
2023/09/21 04:43:40;;;;;;;3.57;2.77;;;;;;;;;;5054269;28;20814;-68
2023/09/21 04:46:06;;;;;;;5.10;3.17;;;;;;;;;;5054197;28;20429;-68
2023/09/21 04:48:33;;;;;;;3.37;2.57;;;;;;;;;;5054182;28;20417;-68
2023/09/21 04:50:59;;;;;;;4.70;3.07;;;;;;;;;;5036105;28;20435;-68
2023/09/21 04:53:27;;;;;;;3.50;2.90;;;;;;;;;;5035930;28;20785;-68
2023/09/21 04:55:53;;;;;;;3.30;2.50;;;;;;;;;;5053947;28;20429;-68
2023/09/21 04:58:23;;;;;;;4.40;3.53;;;;;;;;;;5054571;28;20458;-68
2023/09/21 05:00:49;;;;;;;4.40;3.40;;;;;;;;;;5053965;28;20442;-68
2023/09/21 05:03:16;;;;;;;3.17;2.60;;;;;;;;;;5036059;28;20413;-68
2023/09/21 05:05:42;;;;;;;3.60;2.60;;;;;;;;;;5053949;28;20918;-68
2023/09/21 05:08:09;;;;;;;3.57;2.43;;;;;;;;;;5053944;28;20416;-68
2023/09/21 05:10:35;;;;;;;4.23;2.73;;;;;;;;;;5053896;28;20927;-69
2023/09/21 05:13:02;;;;;;;3.53;2.60;;;;;;;;;;5035690;28;20807;-68
2023/09/21 05:15:28;;;;;;;5.47;3.27;;;;;;;;;;5053635;28;20520;-68
2023/09/21 05:17:54;;;;;;;4.10;3.30;;;;;;;;;;5035233;28;20452;-69
2023/09/21 05:20:19;;;;;;;4.67;3.17;;;16.00;57.70;;;;;;5053700;28;20492;-69
2023/09/21 05:22:45;;;;;;;4.60;3.00;;;16.00;59.90;;;;;;5053419;28;20421;-68
2023/09/21 05:25:11;;;;;;;4.60;3.20;;;16.10;59.60;;;;;;5053927;28;20195;-69
2023/09/21 05:27:37;;;;;;;3.90;2.77;;;16.10;59.60;;;;;;5035692;28;20179;-69
2023/09/21 05:30:04;;;;;;;5.30;3.13;;;16.10;59.40;;;;;;5053343;28;20512;-69
2023/09/21 05:32:33;;;;;;;3.70;2.70;;;16.20;57.80;;;;;;5053141;28;20417;-69
2023/09/21 05:34:59;;;;;;;4.77;2.87;;;16.30;58.30;;;;;;5053397;28;20946;-69
2023/09/21 05:37:25;;;;;;;6.50;3.60;;;16.30;59.80;;;;;;5053436;28;20499;-69
2023/09/21 05:39:51;;;;;;;5.37;3.40;;;16.40;60.10;;;;;;5053157;28;20209;-69
2023/09/21 05:42:17;;;;;;;3.67;2.87;;;16.60;57.20;;;;;;5035259;28;20614;-69
2023/09/21 05:44:44;;;;;;;4.37;2.90;;;16.70;56.60;;;;;;5052891;28;20480;-69
2023/09/21 05:47:10;;;;;;;4.13;3.30;;;;;;;;;;5053221;28;20224;-69
2023/09/21 05:49:37;;;;;;;6.63;3.40;;;;;;;;;;5034952;28;20424;-69
2023/09/21 05:52:11;;;;;;;4.80;2.77;;;;;;;;;;5034999;28;20506;-68
2023/09/21 05:54:38;;;;;;;5.13;3.07;;;;;;;;;;5035371;28;20468;-69
2023/09/21 05:57:04;;;;;;;10.37;9.63;;;;;;;;;;5052799;28;20413;-69
2023/09/21 05:59:31;;;;;;;7.40;6.80;;;;;;;;;;5052829;28;20456;-69
2023/09/21 06:01:57;;;;;;;4.40;3.20;;;;;;;;;;5052811;28;20904;-69
2023/09/21 06:04:24;;;;;;;7.20;3.33;;;;;;;;;;5052308;28;20451;-69
2023/09/21 06:06:55;;;;;;;3.87;3.00;;;;;;;;;;5052848;28;20407;-69
2023/09/21 06:09:22;;;;;;;7.07;3.57;;;;;;;;;;5052831;28;20413;-69
2023/09/21 06:11:48;;;;;;;4.60;3.37;;;;;;;;;;5052473;28;20899;-69
2023/09/21 06:14:15;;;;;;;6.00;4.27;;;;;;;;;;5052255;28;20464;-69
2023/09/21 06:16:44;;;;;;;3.83;2.40;;;;;;;;;;5052583;28;20448;-69
2023/09/21 06:19:13;;;;;;;4.30;3.30;;;;;;;;;;5052345;28;20502;-69
2023/09/21 06:21:39;;;;;;;6.63;3.07;;;;;;;;;;5052419;28;20428;-69
2023/09/21 06:24:06;;;;;;;5.47;3.90;;;;;;;;;;5052222;28;20440;-69
2023/09/21 06:26:32;;;;;;;9.97;3.40;;;;;;;;;;5052107;28;20433;-68
2023/09/21 06:28:59;;;;;;;5.47;3.27;;;;;;;;;;5034191;28;20551;-68
2023/09/21 06:31:25;;;;;;;5.20;3.13;;;;;;;;;;5052282;28;20470;-68
2023/09/21 06:33:53;;;;;;;5.40;2.93;;;;;;;;;;5052022;28;20456;-68
2023/09/21 06:36:20;;;;;;;10.13;4.37;;;;;;;;;;5052067;28;20468;-68
2023/09/21 06:38:52;;;;;;;5.03;2.90;;;;;;;;;;5034013;28;20456;-68
2023/09/21 06:41:18;;;;;;;3.70;3.20;;;;;;;;;;5052007;28;20916;-68
2023/09/21 06:43:44;;;;;;;7.40;3.77;;;;;;;;;;5051823;28;20410;-68
2023/09/21 06:46:10;;;;;;;6.37;3.40;;;;;;;;;;5051899;28;20432;-69
2023/09/21 06:48:37;;;;;;;5.40;4.57;;;;;;;;;;5052045;28;20416;-69
2023/09/21 06:51:04;;;;;;;4.93;4.10;;;;;;;;;;5051868;28;20426;-69
2023/09/21 06:53:31;;;;;;;10.33;4.50;;;;;;;;;;5051706;28;20987;-69
2023/09/21 06:55:58;;;;;;;4.40;2.80;;;;;;;;;;5033961;28;20808;-68
2023/09/21 06:58:24;;;;;;;6.17;4.60;;;;;;;;;;5051807;28;20424;-69
2023/09/21 07:00:51;;;;;;;11.27;4.17;;;;;;;;;;5051687;28;20432;-69
2023/09/21 07:03:18;;;;;;;4.23;2.70;;;;;;;;;;5051975;28;20402;-68
2023/09/21 07:05:46;;;;;;;6.20;4.00;;;;;;;;;;5033677;28;20536;-68
2023/09/21 07:08:12;;;;;;;6.50;3.60;;;;;;;;;;5051647;28;20409;-68
2023/09/21 07:10:38;;;;;;;6.07;3.93;;;;;;;;;;5033886;28;20487;-69
2023/09/21 07:13:05;;;;;;;7.43;3.67;;;;;;;;;;5033519;28;20420;-68
2023/09/21 07:15:31;;;;;;;5.70;2.73;;;;;;;;;;5051687;28;20433;-69
2023/09/21 07:17:58;;;;;;;7.60;3.27;;;23.10;13.70;;;;;;5051642;28;20420;-68
2023/09/21 07:20:26;;;;;;;6.83;3.63;;;23.00;13.30;;;;;;5051434;28;20554;-68
2023/09/21 07:22:52;;;;;;;5.70;3.70;;;23.10;13.30;;;;;;5051389;28;20425;-69
2023/09/21 07:25:19;;;;;;;6.10;2.97;;;23.10;13.20;;;;;;5051522;28;20429;-69
2023/09/21 07:27:45;;;;;;;6.30;3.10;;;23.30;14.30;;;;;;5033589;28;20417;-69
2023/09/21 07:30:13;;;;;;;6.03;3.40;;;23.50;14.40;;;;;;5033670;28;20431;-69
2023/09/21 07:32:39;;;;;;;7.50;4.53;;;23.40;14.40;;;;;;5051234;28;20228;-69
2023/09/21 07:35:06;;;;;;;7.30;4.03;;;23.20;15.30;;;;;;5033457;28;20436;-69
2023/09/21 07:37:32;;;;;;;6.07;4.07;;;23.00;16.20;;;;;;5051561;28;20478;-69
2023/09/21 07:39:58;;;;;;;4.80;4.10;;;22.70;16.10;;;;;;5034788;28;20457;-69
2023/09/21 07:42:24;;;;;;;6.73;4.13;;;22.80;17.70;;;;;;5055228;28;20421;-69
2023/09/21 07:44:49;;;;;;;5.20;3.73;;;22.80;17.30;;;;;;5055314;28;20436;-69
2023/09/21 07:47:16;;;;;;;10.20;3.20;;;23.00;16.30;;;;;;5056344;28;20182;-69
2023/09/21 07:49:44;;;;;;;5.17;3.33;;;23.20;14.30;;;;;;5055255;28;20266;-69
2023/09/21 07:52:10;;;;;;;3.93;3.63;;;23.30;13.80;;;;;;5037359;28;20440;-69
2023/09/21 07:54:35;;;;;;;7.30;3.63;;;23.30;13.80;;;;;;5055094;28;20436;-69
2023/09/21 07:57:03;;;;;;;4.83;3.03;;;23.20;13.30;;;;;;5055097;28;20182;-69
2023/09/21 07:59:29;;;;;;;4.50;2.90;;;23.20;14.00;;;;;;5055046;28;20191;-68
2023/09/21 08:01:56;;;;;;;4.90;3.20;;;23.00;14.20;;;;;;5056183;28;20424;-68
2023/09/21 08:04:21;;;;;;;3.80;2.43;;;23.20;13.30;;;;;;5054596;28;20257;-68
2023/09/21 08:06:48;;;;;;;4.17;2.83;;;22.90;14.10;;;;;;5094499;22;20573;-73
2023/09/21 08:09:14;;;;;;;3.47;3.10;;;23.30;13.90;;;;;;5073883;28;20546;-68
2023/09/21 08:11:40;;;;;;;3.93;2.93;;;23.80;11.60;;;;;;5075186;28;20400;-68
2023/09/21 08:14:06;;;;;;;10.67;4.07;;;24.20;10.80;;;;;;5074998;28;20439;-68
2023/09/21 08:16:32;;;;;;;3.53;3.23;;;24.80;9.70;;;;;;5075623;28;20458;-70
2023/09/21 08:18:58;;;;;;;3.40;2.77;;;25.20;8.40;;;;;;5075854;28;20212;-68
2023/09/21 08:21:24;;;;;;;4.33;3.07;;;25.50;7.50;;;;;;5076706;28;20409;-68
2023/09/21 08:23:50;;;;;;;4.80;3.50;;;25.80;6.80;;;;;;5075460;28;20174;-69
2023/09/21 08:26:15;;;;;;;4.17;2.97;;;26.30;6.10;;;;;;5074891;28;20424;-70
2023/09/21 08:28:41;;;;;;;3.17;2.83;;;26.20;5.60;;;;;;5075328;28;20530;-68
2023/09/21 08:31:09;;;;;;;4.37;3.93;;;26.00;6.50;;;;;;5075060;28;20182;-68
2023/09/21 08:33:34;;;;;;;6.27;3.40;;;26.10;4.90;;;;;;5075179;28;20170;-68
2023/09/21 08:36:00;;;;;;;5.10;3.30;;;25.60;4.50;;;;;;5076569;28;20436;-68
2023/09/21 08:38:26;;;;;;;4.77;3.13;;;25.60;5.50;;;;;;5075257;28;20462;-69
2023/09/21 08:40:52;;;;;;;3.33;3.03;;;25.30;5.00;;;;;;5075152;28;20190;-71
2023/09/21 08:43:24;;;;;;;4.87;3.53;;;25.10;6.40;;;;;;5073250;28;20660;-69
2023/09/21 08:45:51;;;;;;;4.97;3.70;;;25.10;6.40;;;;;;5074993;28;20428;-69
2023/09/21 08:48:23;;;;;;;4.23;3.30;;;25.10;6.60;;;;;;5076474;28;20907;-68
2023/09/21 08:50:53;;;;;;;4.30;3.33;;;24.90;7.10;;;;;;5074222;28;20803;-68
2023/09/21 08:53:21;;;;;;;4.53;3.90;;;24.60;7.50;;;;;;5072352;28;20953;-68
2023/09/21 08:55:52;;;;;;;3.80;2.83;;;24.40;8.50;;;;;;5074322;28;20550;-69
2023/09/21 08:58:23;;;;;;;4.50;3.27;;;24.50;9.50;;;;;;5073966;28;20821;-70
2023/09/21 09:00:52;;;;;;;3.93;3.50;;;24.60;10.30;;;;;;5073864;28;20452;-70
2023/09/21 09:03:20;;;;;;;4.00;3.07;;;24.70;8.30;;;;;;5073871;28;20408;-70
2023/09/21 09:05:46;;;;;;;10.60;3.87;;;24.80;6.60;;;;;;5072656;28;20448;-71
2023/09/21 09:08:12;;;;;;;3.67;2.90;;;24.90;7.10;;;;;;5074115;28;20415;-69
2023/09/21 09:10:41;;;;;;;5.37;3.37;;;25.10;6.40;;;;;;5073999;28;20424;-71
2023/09/21 09:13:10;;;;;;;5.40;3.70;;;25.50;6.20;;;;;;5072356;28;20186;-70
2023/09/21 09:15:41;;;;;;;10.13;3.47;;;25.60;3.70;;;;;;5072426;28;20448;-70
2023/09/21 09:18:08;;;;;;;3.43;3.13;;;25.70;2.70;;;;;;5073730;28;20420;-70
2023/09/21 09:20:36;;;;;;;2.73;2.53;;;25.60;2.80;;;;;;5072260;28;21028;-70
2023/09/21 09:23:03;;;;;;;4.10;3.20;;;25.60;2.30;;;;;;5073422;28;20420;-70
2023/09/21 09:25:28;;;;;;;5.20;3.60;;;25.40;1.90;;;;;;5073417;28;20424;-69
2023/09/21 09:27:54;;;;;;;4.77;3.17;;;25.60;3.00;;;;;;5073541;28;20449;-72
2023/09/21 09:30:23;;;;;;;3.60;2.50;;;25.70;2.10;;;;;;5072005;28;20182;-69
2023/09/21 09:32:51;;;;;;;3.43;2.83;;;25.90;2.10;;;;;;5073064;28;20478;-69
2023/09/21 09:35:17;;;;;;;3.57;3.27;;;25.90;2.20;;;;;;5071948;28;20847;-70
2023/09/21 09:37:43;;;;;;;4.07;3.37;;;26.20;1.00;;;;;;5073478;28;20447;-70
2023/09/21 09:40:13;;;;;;;3.13;2.83;;;26.50;1.00;;;;;;5073072;28;20870;-70
2023/09/21 09:42:44;;;;;;;4.00;2.80;;;26.50;1.00;;;;;;5072036;28;21003;-70
2023/09/21 09:45:16;;;;;;;3.23;2.93;;;26.90;1.00;;;;;;5073009;28;20473;-70
2023/09/21 09:47:50;;;;;;;4.73;3.17;;;27.10;1.00;;;;;;5073328;28;20404;-70
2023/09/21 09:50:20;;;;;;;4.83;3.50;;;27.40;1.00;;;;;;5071821;28;20419;-70
2023/09/21 09:52:49;;;;;;;3.87;3.23;;;27.40;1.00;;;;;;5072734;28;20434;-70
2023/09/21 09:55:16;;;;;;;6.33;3.13;;;27.30;1.00;;;;;;5073101;28;20515;-70
2023/09/21 09:57:44;;;;;;;2.87;2.67;;;27.00;1.00;;;;;;5071665;28;20511;-70
2023/09/21 10:00:22;;;;;;;5.33;3.80;;;26.70;1.00;;;;;;5071533;28;20467;-71
2023/09/21 10:02:49;;;;;;;3.70;3.30;;;27.20;1.00;;;;;;5072835;28;20447;-70
2023/09/21 10:05:19;;;;;;;3.57;3.27;;;27.60;1.00;;;;;;5072798;28;20520;-71
2023/09/21 10:07:46;;;;;;;2.97;2.70;;;27.90;1.00;;;;;;5072820;28;20416;-70
2023/09/21 10:10:15;;;;;;;3.30;2.93;;;28.20;1.00;;;;;;5072639;28;20424;-70
2023/09/21 10:12:43;;;;;;;3.87;3.20;;;28.20;1.00;;;;;;5072398;28;20404;-70
2023/09/21 10:15:13;;;;;;;3.00;2.70;;;28.40;1.00;;;;;;5072431;28;20439;-71
2023/09/21 10:17:38;;;;;;;3.57;3.10;;;29.00;1.00;;;;;;5072556;28;20846;-71
2023/09/21 10:20:14;;;;;;;3.80;3.40;;;29.10;1.00;;;;;;5072448;28;20465;-70
2023/09/21 10:22:44;;;;;;;4.47;3.17;;;29.20;1.00;;;;;;5072204;28;20173;-70
2023/09/21 10:25:15;;;;;;;4.93;3.27;;;29.50;1.00;;;;;;5072345;28;20439;-69
2023/09/21 10:27:46;;;;;;;3.70;3.40;;;29.50;1.00;;;;;;5072385;28;20412;-71
2023/09/21 10:30:15;;;;;;;3.37;3.07;;;29.40;1.00;;;;;;5072289;28;20408;-71
2023/09/21 10:32:49;;;;;;;3.67;3.37;;;29.60;1.00;;;;;;5072040;28;20416;-71
2023/09/21 10:35:42;;;;;;;3.33;3.03;;;29.70;1.00;;;;;;5072095;28;20428;-70
2023/09/21 10:38:26;;;;;;;5.33;3.63;;;29.30;1.00;;;;;;5072034;28;20420;-70
2023/09/21 10:40:52;;;;;;;3.47;3.23;;;29.00;1.00;;;;;;5072164;28;20448;-69
2023/09/21 10:43:36;;;;;;;3.47;3.27;;;28.70;1.00;;;;;;5071855;28;20444;-70
2023/09/21 10:46:03;;;;;;;3.40;3.10;;;28.60;1.00;;;;;;5072145;28;20420;-70
2023/09/21 10:48:30;;;;;;;3.30;3.00;;;28.10;1.00;;;;;;5070668;28;20949;-71
2023/09/21 10:50:56;;;;;;;4.00;3.70;;;27.80;1.00;;;;;;5072056;28;20672;-71
2023/09/21 10:53:23;;;;;;;3.47;3.17;;;27.50;1.00;;;;;;5072397;28;20796;-71
2023/09/21 10:55:49;;;;;;;3.47;3.17;;;27.50;1.00;;;;;;5072939;28;20985;-70
2023/09/21 10:58:17;;;;;;;3.50;3.20;;;27.60;1.00;;;;;;5073179;28;20419;-71
2023/09/21 11:00:43;;;;;;;3.43;3.23;;;27.70;1.00;;;;;;5071943;28;20452;-71
2023/09/21 11:03:11;;;;;;;3.57;3.27;;;27.60;1.00;;;;;;5071712;28;20462;-70
2023/09/21 11:05:38;;;;;;;4.50;3.33;;;27.70;1.00;;;;;;5071429;28;20447;-70
2023/09/21 11:08:04;;;;;;;2.90;2.70;;;27.90;1.00;;;;;;5071642;28;20503;-70
2023/09/21 11:10:31;;;;;;;4.80;3.47;;;28.00;1.00;;;;;;5071762;28;20424;-70
2023/09/21 11:12:56;;;;;;;3.20;2.90;;;27.90;1.00;;;;;;5071579;28;20435;-69
2023/09/21 11:15:22;;;;;;;3.40;3.10;;;27.60;1.00;;;;;;5071282;28;20436;-70
2023/09/21 11:17:48;;;;;;;4.63;3.07;;;27.60;1.00;;;;;;5071731;28;20182;-69
2023/09/21 11:20:17;;;;;;;4.17;2.97;;;27.70;1.00;;;;;;5071554;28;20206;-69
2023/09/21 11:22:44;;;;;;;2.90;2.70;;;27.60;1.00;;;;;;5071912;28;20177;-69
2023/09/21 11:25:14;;;;;;;2.93;2.73;;;27.40;1.00;;;;;;5071804;28;20443;-69
2023/09/21 11:27:41;;;;;;;3.63;3.33;;;27.50;1.00;;;;;;5070414;28;20773;-69
2023/09/21 11:30:10;;;;;;;3.43;3.13;;;27.70;1.00;;;;;;5071627;28;20420;-69
2023/09/21 11:32:46;;;;;;;3.20;3.00;;;27.70;1.00;;;;;;5071841;28;20863;-70
2023/09/21 11:35:14;;;;;;;4.10;3.10;;;27.90;1.00;;;;;;5071462;28;20442;-69
2023/09/21 11:37:41;;;;;;;3.03;2.83;;;27.90;1.00;;;;;;5070666;28;20790;-70
2023/09/21 11:40:12;;;;;;;3.63;3.17;;;28.20;1.00;;;;;;5071341;28;20463;-70
2023/09/21 11:42:43;;;;;;;3.33;3.07;;;28.60;1.00;;;;;;5071210;28;20408;-70
2023/09/21 11:45:20;;;;;;;3.10;2.90;;;29.00;1.00;;;;;;5071236;28;20439;-70
2023/09/21 11:47:56;;;;;;;3.30;2.80;;;29.30;1.00;;;;;;5071393;28;20899;-70
2023/09/21 11:50:27;;;;;;;4.33;3.93;;;29.40;1.00;;;;;;5071936;28;20416;-70
2023/09/21 11:52:54;;;;;;;3.20;2.97;;;29.60;1.00;;;;;;5071343;28;20417;-70
2023/09/21 11:55:29;;;;;;;3.00;2.80;;;29.70;1.00;;;;;;5071367;28;20444;-70
2023/09/21 11:58:13;;;;;;;3.73;3.43;;;29.60;1.00;;;;;;5071399;28;20427;-70
2023/09/21 12:00:44;;;;;;;3.60;3.30;;;29.50;1.00;;;;;;5071364;28;20487;-70
2023/09/21 12:03:13;;;;;;;3.40;3.20;;;30.00;1.00;;;;;;5071360;28;20884;-70
2023/09/21 12:05:45;;;;;;;4.40;3.90;;;30.20;1.00;;;;;;5071178;28;20444;-70
2023/09/21 12:08:13;;;;;;;3.83;3.53;;;29.80;1.00;;;;;;5069904;28;20430;-70
2023/09/21 12:10:45;;;;;;;6.57;4.00;;;29.70;1.00;;;;;;5071275;28;20416;-69
2023/09/21 12:13:11;;;;;;;3.60;3.30;;;29.70;1.00;;;;;;5071223;28;20998;-70
2023/09/21 12:15:40;;;;;;;3.57;3.27;;;29.30;1.00;;;;;;5071196;28;20807;-70
2023/09/21 12:18:12;;;;;;;3.40;3.20;;;29.00;1.00;;;;;;5071196;28;20791;-70
2023/09/21 12:20:49;;;;;;;4.20;3.67;;;29.10;1.00;;;;;;5071432;28;20871;-70
2023/09/21 12:23:18;;;;;;;4.20;3.70;;;29.30;1.00;;;;;;5071169;28;20491;-70
2023/09/21 12:25:43;;;;;;;3.80;3.50;;;29.50;1.00;;;;;;5071723;28;20466;-70
2023/09/21 12:28:11;;;;;;;3.73;3.40;;;29.30;1.00;;;;;;5074537;28;20408;-70
2023/09/21 12:30:42;;;;;;;3.60;3.40;;;29.30;1.00;;;;;;5074429;28;20177;-70
2023/09/21 12:33:08;;;;;;;4.33;4.00;;;29.10;1.00;;;;;;5074270;28;20420;-70
2023/09/21 12:35:36;;;;;;;3.73;3.43;;;29.40;1.00;;;;;;5074344;28;20471;-70
2023/09/21 12:38:02;;;;;;;3.80;3.50;;;29.00;1.00;;;;;;5074356;28;20427;-70
2023/09/21 12:40:28;;;;;;;4.43;4.03;;;29.00;1.00;;;;;;5074751;28;20452;-71
2023/09/21 12:42:54;;;;;;;4.00;3.70;;;28.80;1.00;;;;;;5074260;28;20193;-69
2023/09/21 12:45:21;;;;;;;3.70;3.43;;;29.00;1.00;;;;;;5074183;28;20200;-69
2023/09/21 12:47:47;;;;;;;9.63;4.00;;;29.10;1.00;;;;;;5074247;28;20409;-69
2023/09/21 12:50:14;;;;;;;3.83;3.53;;;29.60;1.00;;;;;;5074140;28;20416;-69
2023/09/21 12:52:41;;;;;;;4.07;3.77;;;29.80;1.00;;;;;;5072692;28;20416;-69
2023/09/21 12:55:07;;;;;;;3.60;3.30;;;29.80;1.00;;;;;;5074191;28;20464;-69
2023/09/21 12:57:36;;;;;;;4.60;4.20;;;29.60;1.00;;;;;;5074281;28;20806;-69
2023/09/21 13:00:22;;;;;;;4.83;3.60;;;29.60;1.00;;;;;;5073994;28;20509;-70
2023/09/21 13:02:48;;;;;;;3.53;3.20;;;29.80;1.00;;;;;;5073833;28;20412;-70
2023/09/21 13:05:14;;;;;;;3.50;3.30;;;30.00;1.00;;;;;;5073955;28;20443;-70
2023/09/21 13:07:40;;;;;;;3.70;3.40;;;29.90;1.00;;;;;;5073969;28;20977;-70
2023/09/21 13:10:11;;;;;;;3.50;3.20;;;29.50;1.00;;;;;;5074105;28;20709;-70
2023/09/21 13:12:37;;;;;;;4.03;3.73;;;29.40;1.00;;;;;;5073520;28;20420;-70